TAF and METAR

METAR for El Alto International Airport

SLLP 230300Z 08006KT 4000E VCFG FEW003 FEW017CB SCT200 07/06Q1040
Report created 23. feb 04:00
wind 6 knots from E (080°) visibility E 4000 meters fog in the vicinity some clouds (~25% cover) at 300 feet some clouds (~25% cover) at 1700 feet of type cumulonimbus scattered clouds (~50% cover) at 20000 feet Temperature 7° with dewpoint at 6° (Humidity 93.35%) Pressure 1040 hPa

TAF for El Alto International Airport

TAF SLLP 222310Z 2300/2324 13006KT 9999 FEW017 TX17/2320Z TN05/2310Z BECMG 2304/2307 3000E VCFG BECMG 2312/2314 9999 NSW SCT015 TEMPO 2319/2321 SCT020 FEW023CB
Report created 23. feb 00:10

between 23. feb 01:00 - 23. feb 01:00

wind 6 knots from SE (130°) visibility > 10km some clouds (~25% cover) at 1700 feet Max temperature 17° expected today at around 21 o'clock Min temperature 05° expected today at around 11 o'clock

becoming between 23. feb 05:00 - 23. feb 08:00

visibility E 3000 meters fog in the vicinity

becoming between 23. feb 13:00 - 23. feb 15:00

visibility > 10km scattered clouds (~50% cover) at 1500 feet

temporarily between 23. feb 20:00 - 23. feb 22:00

scattered clouds (~50% cover) at 2000 feet some clouds (~25% cover) at 2300 feet of type cumulonimbus
El Alto International Airport in Bolivia at 4014m

Latest 5 airports